Bungo Princess — 3FXV8 — position and weather

sailwx.info

Track history (hours):
 
Tides and Currents Weather Stations Pressure Air Temp Water Temp Dewpoint Dewpoint Depression Visibility Wind Speed Wind Dir Waves Ship Positions

Bungo Princess

Last reported at 2017-Jan-17 08:27 UTC. Time now 2017-Jan-17 17:21 UTC.
Position N 38°36' E 120°59'.

Length 103 m; draft 5 m.

Type: Cargo ship. MMSI: 355074054.

Date/timePositionNaut miles runAvg speedWind from/ knotsBaromVisibWave heightAir tempDewpointWater temp
2017-Jan-17 08:27N 38°36' E 120°59'8 8.6
2017-Jan-17 07:30N 38°31' E 121°07'22 9.1
2017-Jan-17 05:07N 38°20' E 121°31'441 8.5
2017-Jan-15 01:14N 31°01' E 122°23'910.4
2017-Jan-15 00:22N 31°03' E 122°13'1011.8
2017-Jan-14 23:33N 31°05' E 122°02'1414.1
2017-Jan-14 22:33N 31°13' E 121°48'1313.4
2017-Jan-14 21:33N 31°22' E 121°37'6 6.0
2017-Jan-14 20:33N 31°22' E 121°30'0 0.0
2017-Jan-14 19:30N 31°22' E 121°30'0 0.0
2017-Jan-14 18:30N 31°22' E 121°30'0 0.0
2017-Jan-14 17:15N 31°22' E 121°30'0 0.1
2017-Jan-14 16:33N 31°22' E 121°30'0 0.0
2017-Jan-14 15:33N 31°22' E 121°30'0 0.0
2017-Jan-14 14:24N 31°22' E 121°30'0 0.0
2017-Jan-14 13:12N 31°22' E 121°30'0 0.1
2017-Jan-14 12:30N 31°22' E 121°30'0 0.0
2017-Jan-14 10:24N 31°22' E 121°30'0 0.0
2017-Jan-14 09:30N 31°22' E 121°30'0 0.4
2017-Jan-14 08:32N 31°22' E 121°30'4 3.6
2017-Jan-14 07:33N 31°23' E 121°34'9 8.9
2017-Jan-14 06:33N 31°19' E 121°43'9 9.2
2017-Jan-14 05:33N 31°16' E 121°53'1313.4
2017-Jan-14 04:33N 31°12' E 122°08'  
Track history (hours):
 
Tides and Currents Weather Stations Pressure Air Temp Water Temp Dewpoint Dewpoint Depression Visibility Wind Speed Wind Dir Waves Ship Positions

Bungo Princess

Last reported at 2017-Jan-17 08:27 UTC. Time now 2017-Jan-17 17:21 UTC.
Position N 38°36' E 120°59'.

Length 103 m; draft 5 m.

Type: Cargo ship. MMSI: 355074054.

Date/timePositionNaut miles runAvg speedWind from/ knotsBaromVisibWave heightAir tempDewpointWater temp
2017-Jan-17 08:27N 38°36' E 120°59'8 8.6
2017-Jan-17 07:30N 38°31' E 121°07'22 9.1
2017-Jan-17 05:07N 38°20' E 121°31'441 8.5
2017-Jan-15 01:14N 31°01' E 122°23'910.4
2017-Jan-15 00:22N 31°03' E 122°13'1011.8
2017-Jan-14 23:33N 31°05' E 122°02'1414.1
2017-Jan-14 22:33N 31°13' E 121°48'1313.4
2017-Jan-14 21:33N 31°22' E 121°37'6 6.0
2017-Jan-14 20:33N 31°22' E 121°30'0 0.0
2017-Jan-14 19:30N 31°22' E 121°30'0 0.0
2017-Jan-14 18:30N 31°22' E 121°30'0 0.0
2017-Jan-14 17:15N 31°22' E 121°30'0 0.1
2017-Jan-14 16:33N 31°22' E 121°30'0 0.0
2017-Jan-14 15:33N 31°22' E 121°30'0 0.0
2017-Jan-14 14:24N 31°22' E 121°30'0 0.0
2017-Jan-14 13:12N 31°22' E 121°30'0 0.1
2017-Jan-14 12:30N 31°22' E 121°30'0 0.0
2017-Jan-14 10:24N 31°22' E 121°30'0 0.0
2017-Jan-14 09:30N 31°22' E 121°30'0 0.4
2017-Jan-14 08:32N 31°22' E 121°30'4 3.6
2017-Jan-14 07:33N 31°23' E 121°34'9 8.9
2017-Jan-14 06:33N 31°19' E 121°43'9 9.2
2017-Jan-14 05:33N 31°16' E 121°53'1313.4
2017-Jan-14 04:33N 31°12' E 122°08'  

Dump ship's entire track history